sensor_id;sensor_type;location;lat;lon;timestamp;temperature;humidity
41142;SHT31;63666;52.284;20.890;2023-04-15T00:02:24;20.59;44.19
41142;SHT31;63666;52.284;20.890;2023-04-15T00:04:59;20.59;44.15
41142;SHT31;63666;52.284;20.890;2023-04-15T00:07:33;20.60;44.13
41142;SHT31;63666;52.284;20.890;2023-04-15T00:10:09;20.59;44.13
41142;SHT31;63666;52.284;20.890;2023-04-15T00:12:44;20.59;44.13
41142;SHT31;63666;52.284;20.890;2023-04-15T00:15:23;20.59;44.14
41142;SHT31;63666;52.284;20.890;2023-04-15T00:17:57;20.59;44.11
41142;SHT31;63666;52.284;20.890;2023-04-15T00:20:34;20.57;44.13
41142;SHT31;63666;52.284;20.890;2023-04-15T00:23:10;20.57;44.10
41142;SHT31;63666;52.284;20.890;2023-04-15T00:25:46;20.57;44.10
41142;SHT31;63666;52.284;20.890;2023-04-15T00:28:22;20.54;44.10
41142;SHT31;63666;52.284;20.890;2023-04-15T00:30:59;20.54;44.09
41142;SHT31;63666;52.284;20.890;2023-04-15T00:33:37;20.52;44.10
41142;SHT31;63666;52.284;20.890;2023-04-15T00:36:13;20.53;44.10
41142;SHT31;63666;52.284;20.890;2023-04-15T00:38:50;20.50;44.11
41142;SHT31;63666;52.284;20.890;2023-04-15T00:41:24;20.51;44.11
41142;SHT31;63666;52.284;20.890;2023-04-15T00:43:59;20.49;44.14
41142;SHT31;63666;52.284;20.890;2023-04-15T00:46:34;20.50;44.13
41142;SHT31;63666;52.284;20.890;2023-04-15T00:49:10;20.49;44.17
41142;SHT31;63666;52.284;20.890;2023-04-15T00:51:45;20.49;44.20
41142;SHT31;63666;52.284;20.890;2023-04-15T00:54:18;20.48;44.20
41142;SHT31;63666;52.284;20.890;2023-04-15T00:56:54;20.49;44.20
41142;SHT31;63666;52.284;20.890;2023-04-15T00:59:29;20.47;44.20
41142;SHT31;63666;52.284;20.890;2023-04-15T01:02:05;20.47;44.24
41142;SHT31;63666;52.284;20.890;2023-04-15T01:04:41;20.47;44.27
41142;SHT31;63666;52.284;20.890;2023-04-15T01:07:19;20.44;44.29
41142;SHT31;63666;52.284;20.890;2023-04-15T01:09:55;20.44;44.21
41142;SHT31;63666;52.284;20.890;2023-04-15T01:12:31;20.43;44.22
41142;SHT31;63666;52.284;20.890;2023-04-15T01:15:09;20.43;44.23
41142;SHT31;63666;52.284;20.890;2023-04-15T01:17:43;20.41;44.29
41142;SHT31;63666;52.284;20.890;2023-04-15T01:20:20;20.42;44.30
41142;SHT31;63666;52.284;20.890;2023-04-15T01:22:55;20.42;44.30
41142;SHT31;63666;52.284;20.890;2023-04-15T01:25:31;20.43;44.30
41142;SHT31;63666;52.284;20.890;2023-04-15T01:28:06;20.41;44.35
41142;SHT31;63666;52.284;20.890;2023-04-15T01:30:41;20.42;44.38
41142;SHT31;63666;52.284;20.890;2023-04-15T01:33:17;20.40;44.40
41142;SHT31;63666;52.284;20.890;2023-04-15T01:35:55;20.41;44.40
41142;SHT31;63666;52.284;20.890;2023-04-15T01:38:29;20.39;44.44
41142;SHT31;63666;52.284;20.890;2023-04-15T01:41:05;20.38;44.47
41142;SHT31;63666;52.284;20.890;2023-04-15T01:43:40;20.39;44.45
41142;SHT31;63666;52.284;20.890;2023-04-15T01:46:14;20.37;44.50
41142;SHT31;63666;52.284;20.890;2023-04-15T01:48:50;20.38;44.49
41142;SHT31;63666;52.284;20.890;2023-04-15T01:51:25;20.36;44.48
41142;SHT31;63666;52.284;20.890;2023-04-15T01:53:59;20.39;44.43
41142;SHT31;63666;52.284;20.890;2023-04-15T01:56:34;20.38;44.49
41142;SHT31;63666;52.284;20.890;2023-04-15T01:59:08;20.37;44.51
41142;SHT31;63666;52.284;20.890;2023-04-15T02:01:42;20.37;44.50
41142;SHT31;63666;52.284;20.890;2023-04-15T02:04:19;20.36;44.52
41142;SHT31;63666;52.284;20.890;2023-04-15T02:06:53;20.37;44.51
41142;SHT31;63666;52.284;20.890;2023-04-15T02:09:27;20.37;44.51
41142;SHT31;63666;52.284;20.890;2023-04-15T02:12:03;20.34;44.57
41142;SHT31;63666;52.284;20.890;2023-04-15T02:14:40;20.33;44.58
41142;SHT31;63666;52.284;20.890;2023-04-15T02:17:15;20.32;44.60
41142;SHT31;63666;52.284;20.890;2023-04-15T02:19:51;20.32;44.60
41142;SHT31;63666;52.284;20.890;2023-04-15T02:22:27;20.32;44.63
41142;SHT31;63666;52.284;20.890;2023-04-15T02:25:05;20.33;44.61
41142;SHT31;63666;52.284;20.890;2023-04-15T02:27:40;20.32;44.68
41142;SHT31;63666;52.284;20.890;2023-04-15T02:30:13;20.33;44.62
41142;SHT31;63666;52.284;20.890;2023-04-15T02:32:47;20.34;44.65
41142;SHT31;63666;52.284;20.890;2023-04-15T02:35:24;20.33;44.63
41142;SHT31;63666;52.284;20.890;2023-04-15T02:37:58;20.31;44.68
41142;SHT31;63666;52.284;20.890;2023-04-15T02:40:31;20.28;44.74
41142;SHT31;63666;52.284;20.890;2023-04-15T02:43:06;20.30;44.70
41142;SHT31;63666;52.284;20.890;2023-04-15T02:45:41;20.30;44.70
41142;SHT31;63666;52.284;20.890;2023-04-15T02:48:17;20.31;44.71
41142;SHT31;63666;52.284;20.890;2023-04-15T02:50:53;20.32;44.70
41142;SHT31;63666;52.284;20.890;2023-04-15T02:53:41;20.28;44.75
41142;SHT31;63666;52.284;20.890;2023-04-15T02:56:15;20.30;44.73
41142;SHT31;63666;52.284;20.890;2023-04-15T02:58:49;20.30;44.73
41142;SHT31;63666;52.284;20.890;2023-04-15T03:01:29;20.28;44.78
41142;SHT31;63666;52.284;20.890;2023-04-15T03:04:03;20.30;44.79
41142;SHT31;63666;52.284;20.890;2023-04-15T03:06:37;20.35;44.86
41142;SHT31;63666;52.284;20.890;2023-04-15T03:09:11;20.38;44.97
41142;SHT31;63666;52.284;20.890;2023-04-15T03:11:46;20.35;45.03
41142;SHT31;63666;52.284;20.890;2023-04-15T03:14:25;20.33;45.07
41142;SHT31;63666;52.284;20.890;2023-04-15T03:16:59;20.28;45.16
41142;SHT31;63666;52.284;20.890;2023-04-15T03:22:09;20.26;45.19
41142;SHT31;63666;52.284;20.890;2023-04-15T03:24:43;20.26;45.20
41142;SHT31;63666;52.284;20.890;2023-04-15T03:27:20;20.26;45.21
41142;SHT31;63666;52.284;20.890;2023-04-15T03:29:56;20.27;45.19
41142;SHT31;63666;52.284;20.890;2023-04-15T03:32:31;20.26;45.20
41142;SHT31;63666;52.284;20.890;2023-04-15T03:35:08;20.26;45.20
41142;SHT31;63666;52.284;20.890;2023-04-15T03:37:42;20.24;45.21
41142;SHT31;63666;52.284;20.890;2023-04-15T03:40:18;20.25;45.18
41142;SHT31;63666;52.284;20.890;2023-04-15T03:42:52;20.24;45.23
41142;SHT31;63666;52.284;20.890;2023-04-15T03:45:28;20.23;45.24
41142;SHT31;63666;52.284;20.890;2023-04-15T03:48:03;20.23;45.23
41142;SHT31;63666;52.284;20.890;2023-04-15T03:50:46;20.22;45.29
41142;SHT31;63666;52.284;20.890;2023-04-15T03:53:20;20.22;45.33
41142;SHT31;63666;52.284;20.890;2023-04-15T03:55:54;20.21;45.41
41142;SHT31;63666;52.284;20.890;2023-04-15T03:58:29;20.24;45.43
41142;SHT31;63666;52.284;20.890;2023-04-15T04:01:05;20.25;45.45
41142;SHT31;63666;52.284;20.890;2023-04-15T04:03:38;20.25;45.55
41142;SHT31;63666;52.284;20.890;2023-04-15T04:06:15;20.23;45.60
41142;SHT31;63666;52.284;20.890;2023-04-15T04:08:51;20.23;45.63
41142;SHT31;63666;52.284;20.890;2023-04-15T04:11:24;20.22;45.64
41142;SHT31;63666;52.284;20.890;2023-04-15T04:13:59;20.23;45.64
41142;SHT31;63666;52.284;20.890;2023-04-15T04:16:34;20.23;45.66
41142;SHT31;63666;52.284;20.890;2023-04-15T04:19:13;20.22;45.68
41142;SHT31;63666;52.284;20.890;2023-04-15T04:21:48;20.23;45.75
41142;SHT31;63666;52.284;20.890;2023-04-15T04:24:24;20.27;45.76
41142;SHT31;63666;52.284;20.890;2023-04-15T04:27:00;20.33;45.76
41142;SHT31;63666;52.284;20.890;2023-04-15T04:29:34;20.39;45.76
41142;SHT31;63666;52.284;20.890;2023-04-15T04:32:09;20.45;45.83
41142;SHT31;63666;52.284;20.890;2023-04-15T04:34:43;20.53;45.77
41142;SHT31;63666;52.284;20.890;2023-04-15T04:37:18;20.60;45.83
41142;SHT31;63666;52.284;20.890;2023-04-15T04:39:56;20.66;45.74
41142;SHT31;63666;52.284;20.890;2023-04-15T04:45:09;20.76;45.53
41142;SHT31;63666;52.284;20.890;2023-04-15T04:47:44;20.80;45.54
41142;SHT31;63666;52.284;20.890;2023-04-15T04:50:21;20.84;45.49
41142;SHT31;63666;52.284;20.890;2023-04-15T04:52:55;20.86;45.47
41142;SHT31;63666;52.284;20.890;2023-04-15T04:55:31;20.90;45.41
41142;SHT31;63666;52.284;20.890;2023-04-15T04:58:05;20.92;45.40
41142;SHT31;63666;52.284;20.890;2023-04-15T05:00:42;20.95;45.36
41142;SHT31;63666;52.284;20.890;2023-04-15T05:03:17;20.98;45.31
41142;SHT31;63666;52.284;20.890;2023-04-15T05:05:52;21.00;45.31
41142;SHT31;63666;52.284;20.890;2023-04-15T05:08:30;21.02;45.27
41142;SHT31;63666;52.284;20.890;2023-04-15T05:11:08;21.03;45.30
41142;SHT31;63666;52.284;20.890;2023-04-15T05:13:45;21.05;45.23
41142;SHT31;63666;52.284;20.890;2023-04-15T05:16:22;21.05;45.24
41142;SHT31;63666;52.284;20.890;2023-04-15T05:18:58;21.03;45.30
41142;SHT31;63666;52.284;20.890;2023-04-15T05:21:32;21.02;45.31
41142;SHT31;63666;52.284;20.890;2023-04-15T05:24:07;21.01;45.38
41142;SHT31;63666;52.284;20.890;2023-04-15T05:26:43;20.99;45.40
41142;SHT31;63666;52.284;20.890;2023-04-15T05:29:17;20.98;45.41
41142;SHT31;63666;52.284;20.890;2023-04-15T05:31:52;20.95;45.50
41142;SHT31;63666;52.284;20.890;2023-04-15T05:34:28;20.94;45.50
41142;SHT31;63666;52.284;20.890;2023-04-15T05:37:04;20.91;45.54
41142;SHT31;63666;52.284;20.890;2023-04-15T05:39:39;20.89;45.56
41142;SHT31;63666;52.284;20.890;2023-04-15T05:42:18;20.86;45.60
41142;SHT31;63666;52.284;20.890;2023-04-15T05:44:54;20.85;45.63
41142;SHT31;63666;52.284;20.890;2023-04-15T05:47:30;20.87;46.34
41142;SHT31;63666;52.284;20.890;2023-04-15T05:50:07;20.87;46.38
41142;SHT31;63666;52.284;20.890;2023-04-15T05:52:42;20.84;46.38
41142;SHT31;63666;52.284;20.890;2023-04-15T05:55:18;20.82;46.48
41142;SHT31;63666;52.284;20.890;2023-04-15T05:57:53;20.80;46.51
41142;SHT31;63666;52.284;20.890;2023-04-15T06:00:29;20.81;46.46
41142;SHT31;63666;52.284;20.890;2023-04-15T06:03:07;20.79;46.45
41142;SHT31;63666;52.284;20.890;2023-04-15T06:05:43;20.76;46.50
41142;SHT31;63666;52.284;20.890;2023-04-15T06:08:19;20.77;46.50
41142;SHT31;63666;52.284;20.890;2023-04-15T06:10:57;20.74;46.46
41142;SHT31;63666;52.284;20.890;2023-04-15T06:13:33;20.73;46.50
41142;SHT31;63666;52.284;20.890;2023-04-15T06:16:09;20.72;46.46
41142;SHT31;63666;52.284;20.890;2023-04-15T06:18:44;20.72;46.38
41142;SHT31;63666;52.284;20.890;2023-04-15T06:21:20;20.74;46.33
41142;SHT31;63666;52.284;20.890;2023-04-15T06:23:56;20.75;46.37
41142;SHT31;63666;52.284;20.890;2023-04-15T06:26:31;20.79;46.22
41142;SHT31;63666;52.284;20.890;2023-04-15T06:29:08;20.84;46.02
41142;SHT31;63666;52.284;20.890;2023-04-15T06:31:44;20.91;45.81
41142;SHT31;63666;52.284;20.890;2023-04-15T06:34:22;20.95;45.68
41142;SHT31;63666;52.284;20.890;2023-04-15T06:36:57;21.00;45.55
41142;SHT31;63666;52.284;20.890;2023-04-15T06:39:34;21.05;45.43
41142;SHT31;63666;52.284;20.890;2023-04-15T06:42:08;21.07;45.37
41142;SHT31;63666;52.284;20.890;2023-04-15T06:44:47;21.10;45.32
41142;SHT31;63666;52.284;20.890;2023-04-15T06:47:22;21.12;45.31
41142;SHT31;63666;52.284;20.890;2023-04-15T06:49:59;21.13;45.24
41142;SHT31;63666;52.284;20.890;2023-04-15T06:52:35;21.16;45.20
41142;SHT31;63666;52.284;20.890;2023-04-15T06:55:11;21.16;45.21
41142;SHT31;63666;52.284;20.890;2023-04-15T06:57:49;21.16;45.20
41142;SHT31;63666;52.284;20.890;2023-04-15T07:00:26;21.15;45.25
41142;SHT31;63666;52.284;20.890;2023-04-15T07:03:03;21.14;45.30
41142;SHT31;63666;52.284;20.890;2023-04-15T07:05:40;21.14;45.30
41142;SHT31;63666;52.284;20.890;2023-04-15T07:08:14;21.11;45.32
41142;SHT31;63666;52.284;20.890;2023-04-15T07:10:51;21.11;45.38
41142;SHT31;63666;52.284;20.890;2023-04-15T07:13:29;21.09;45.41
41142;SHT31;63666;52.284;20.890;2023-04-15T07:16:07;21.06;45.54
41142;SHT31;63666;52.284;20.890;2023-04-15T07:18:44;21.03;45.62
41142;SHT31;63666;52.284;20.890;2023-04-15T07:21:18;21.00;45.65
41142;SHT31;63666;52.284;20.890;2023-04-15T07:23:53;20.99;45.65
41142;SHT31;63666;52.284;20.890;2023-04-15T07:26:28;20.98;45.70
41142;SHT31;63666;52.284;20.890;2023-04-15T07:29:05;20.94;45.76
41142;SHT31;63666;52.284;20.890;2023-04-15T07:31:40;20.96;45.75
41142;SHT31;63666;52.284;20.890;2023-04-15T07:34:16;20.94;45.76
41142;SHT31;63666;52.284;20.890;2023-04-15T07:36:52;20.94;45.76
41142;SHT31;63666;52.284;20.890;2023-04-15T07:39:28;20.92;45.77
41142;SHT31;63666;52.284;20.890;2023-04-15T07:42:02;20.90;45.83
41142;SHT31;63666;52.284;20.890;2023-04-15T07:44:36;20.89;45.80
41142;SHT31;63666;52.284;20.890;2023-04-15T07:47:11;20.86;45.84
41142;SHT31;63666;52.284;20.890;2023-04-15T07:49:48;20.86;45.85
41142;SHT31;63666;52.284;20.890;2023-04-15T07:52:27;20.84;45.84
41142;SHT31;63666;52.284;20.890;2023-04-15T07:55:08;20.82;45.87
41142;SHT31;63666;52.284;20.890;2023-04-15T07:57:43;20.82;45.87
41142;SHT31;63666;52.284;20.890;2023-04-15T08:00:20;20.82;45.80
41142;SHT31;63666;52.284;20.890;2023-04-15T08:02:58;20.80;45.83
41142;SHT31;63666;52.284;20.890;2023-04-15T08:05:33;20.80;45.81
41142;SHT31;63666;52.284;20.890;2023-04-15T08:08:09;20.79;45.86
41142;SHT31;63666;52.284;20.890;2023-04-15T08:10:46;20.77;45.83
41142;SHT31;63666;52.284;20.890;2023-04-15T08:13:22;20.80;45.84
41142;SHT31;63666;52.284;20.890;2023-04-15T08:18:54;20.78;45.80
41142;SHT31;63666;52.284;20.890;2023-04-15T08:21:30;20.78;45.79
41142;SHT31;63666;52.284;20.890;2023-04-15T08:24:04;20.76;45.77
41142;SHT31;63666;52.284;20.890;2023-04-15T08:26:40;20.76;45.75
41142;SHT31;63666;52.284;20.890;2023-04-15T08:29:16;20.75;45.80
41142;SHT31;63666;52.284;20.890;2023-04-15T08:31:51;20.74;45.78
41142;SHT31;63666;52.284;20.890;2023-04-15T08:34:29;20.71;45.80
41142;SHT31;63666;52.284;20.890;2023-04-15T08:37:06;20.69;45.81
41142;SHT31;63666;52.284;20.890;2023-04-15T08:39:45;20.67;45.81
41142;SHT31;63666;52.284;20.890;2023-04-15T08:42:22;20.66;45.84
41142;SHT31;63666;52.284;20.890;2023-04-15T08:45:04;20.66;45.81
41142;SHT31;63666;52.284;20.890;2023-04-15T08:47:41;20.65;45.79
41142;SHT31;63666;52.284;20.890;2023-04-15T08:50:18;20.65;45.78
41142;SHT31;63666;52.284;20.890;2023-04-15T08:52:54;20.67;45.70
41142;SHT31;63666;52.284;20.890;2023-04-15T08:55:31;20.67;45.69
41142;SHT31;63666;52.284;20.890;2023-04-15T08:58:16;20.67;45.66
41142;SHT31;63666;52.284;20.890;2023-04-15T09:00:52;20.70;45.76
41142;SHT31;63666;52.284;20.890;2023-04-15T09:03:29;20.76;45.80
41142;SHT31;63666;52.284;20.890;2023-04-15T09:06:05;20.81;45.81
41142;SHT31;63666;52.284;20.890;2023-04-15T09:08:40;20.87;45.77
41142;SHT31;63666;52.284;20.890;2023-04-15T09:11:20;20.91;45.90
41142;SHT31;63666;52.284;20.890;2023-04-15T09:13:54;20.97;46.60
41142;SHT31;63666;52.284;20.890;2023-04-15T09:16:29;21.00;46.75
41142;SHT31;63666;52.284;20.890;2023-04-15T09:19:03;21.04;46.66
41142;SHT31;63666;52.284;20.890;2023-04-15T09:21:57;21.08;46.59
41142;SHT31;63666;52.284;20.890;2023-04-15T09:24:37;21.11;46.51
41142;SHT31;63666;52.284;20.890;2023-04-15T09:27:14;21.15;46.41
41142;SHT31;63666;52.284;20.890;2023-04-15T09:29:52;21.18;46.32
41142;SHT31;63666;52.284;20.890;2023-04-15T09:32:27;21.19;46.37
41142;SHT31;63666;52.284;20.890;2023-04-15T09:35:11;21.21;46.37
41142;SHT31;63666;52.284;20.890;2023-04-15T09:37:47;21.21;46.38
41142;SHT31;63666;52.284;20.890;2023-04-15T09:40:33;21.21;46.45
41142;SHT31;63666;52.284;20.890;2023-04-15T09:43:14;21.20;46.56
41142;SHT31;63666;52.284;20.890;2023-04-15T09:45:50;21.20;46.71
41142;SHT31;63666;52.284;20.890;2023-04-15T09:48:25;21.19;46.72
41142;SHT31;63666;52.284;20.890;2023-04-15T09:51:01;21.17;46.79
41142;SHT31;63666;52.284;20.890;2023-04-15T09:53:40;21.14;46.88
41142;SHT31;63666;52.284;20.890;2023-04-15T09:56:16;21.14;46.90
41142;SHT31;63666;52.284;20.890;2023-04-15T09:58:57;21.12;46.97
41142;SHT31;63666;52.284;20.890;2023-04-15T10:01:32;21.11;46.97
41142;SHT31;63666;52.284;20.890;2023-04-15T10:04:08;21.09;46.97
41142;SHT31;63666;52.284;20.890;2023-04-15T10:06:46;21.08;47.02
41142;SHT31;63666;52.284;20.890;2023-04-15T10:09:21;21.07;47.03
41142;SHT31;63666;52.284;20.890;2023-04-15T10:12:00;21.05;46.99
41142;SHT31;63666;52.284;20.890;2023-04-15T10:14:38;21.06;47.03
41142;SHT31;63666;52.284;20.890;2023-04-15T10:17:14;21.05;47.08
41142;SHT31;63666;52.284;20.890;2023-04-15T10:19:54;21.01;47.14
41142;SHT31;63666;52.284;20.890;2023-04-15T10:22:28;21.00;47.01
41142;SHT31;63666;52.284;20.890;2023-04-15T10:25:03;20.99;46.89
41142;SHT31;63666;52.284;20.890;2023-04-15T10:27:40;20.96;46.95
41142;SHT31;63666;52.284;20.890;2023-04-15T10:30:17;20.95;46.88
41142;SHT31;63666;52.284;20.890;2023-04-15T10:32:52;20.94;46.89
41142;SHT31;63666;52.284;20.890;2023-04-15T10:35:26;20.92;46.86
41142;SHT31;63666;52.284;20.890;2023-04-15T10:38:03;20.89;46.86
41142;SHT31;63666;52.284;20.890;2023-04-15T10:41:15;20.89;46.79
41142;SHT31;63666;52.284;20.890;2023-04-15T10:43:51;20.89;46.71
41142;SHT31;63666;52.284;20.890;2023-04-15T10:46:35;20.88;46.70
41142;SHT31;63666;52.284;20.890;2023-04-15T10:49:11;20.86;46.69
41142;SHT31;63666;52.284;20.890;2023-04-15T10:51:56;20.87;46.66
41142;SHT31;63666;52.284;20.890;2023-04-15T10:54:31;20.83;46.68
41142;SHT31;63666;52.284;20.890;2023-04-15T10:57:08;20.84;46.65
41142;SHT31;63666;52.284;20.890;2023-04-15T11:00:02;20.84;46.61
41142;SHT31;63666;52.284;20.890;2023-04-15T11:02:44;20.85;46.74
41142;SHT31;63666;52.284;20.890;2023-04-15T11:05:47;20.85;46.71
41142;SHT31;63666;52.284;20.890;2023-04-15T11:14:39;20.82;46.85
41142;SHT31;63666;52.284;20.890;2023-04-15T11:17:13;20.81;46.90
41142;SHT31;63666;52.284;20.890;2023-04-15T11:19:59;20.80;46.88
41142;SHT31;63666;52.284;20.890;2023-04-15T11:22:36;20.79;47.07
41142;SHT31;63666;52.284;20.890;2023-04-15T11:25:24;20.82;47.14
41142;SHT31;63666;52.284;20.890;2023-04-15T11:28:00;20.84;47.17
41142;SHT31;63666;52.284;20.890;2023-04-15T11:30:35;20.81;47.45
41142;SHT31;63666;52.284;20.890;2023-04-15T11:33:11;20.83;47.50
41142;SHT31;63666;52.284;20.890;2023-04-15T11:35:48;20.83;47.59
41142;SHT31;63666;52.284;20.890;2023-04-15T11:38:23;20.83;47.54
41142;SHT31;63666;52.284;20.890;2023-04-15T11:41:00;20.83;47.54
41142;SHT31;63666;52.284;20.890;2023-04-15T11:43:34;20.81;47.59
41142;SHT31;63666;52.284;20.890;2023-04-15T11:46:09;20.77;47.61
41142;SHT31;63666;52.284;20.890;2023-04-15T11:48:45;20.75;47.60
41142;SHT31;63666;52.284;20.890;2023-04-15T11:51:20;20.75;47.53
41142;SHT31;63666;52.284;20.890;2023-04-15T11:53:55;20.74;47.50
41142;SHT31;63666;52.284;20.890;2023-04-15T11:56:30;20.71;47.45
41142;SHT31;63666;52.284;20.890;2023-04-15T11:59:06;20.71;47.40
41142;SHT31;63666;52.284;20.890;2023-04-15T12:01:42;20.75;47.25
41142;SHT31;63666;52.284;20.890;2023-04-15T12:04:18;20.77;47.35
41142;SHT31;63666;52.284;20.890;2023-04-15T12:07:01;20.82;47.67
41142;SHT31;63666;52.284;20.890;2023-04-15T12:09:38;20.87;47.65
41142;SHT31;63666;52.284;20.890;2023-04-15T12:12:14;20.93;47.60
41142;SHT31;63666;52.284;20.890;2023-04-15T12:14:51;20.99;47.55
41142;SHT31;63666;52.284;20.890;2023-04-15T12:17:28;21.02;47.41
41142;SHT31;63666;52.284;20.890;2023-04-15T12:20:22;21.09;47.44
41142;SHT31;63666;52.284;20.890;2023-04-15T12:23:05;21.15;47.28
41142;SHT31;63666;52.284;20.890;2023-04-15T12:25:41;21.20;47.17
41142;SHT31;63666;52.284;20.890;2023-04-15T12:28:21;21.25;47.10
41142;SHT31;63666;52.284;20.890;2023-04-15T12:30:55;21.31;47.07
41142;SHT31;63666;52.284;20.890;2023-04-15T12:33:35;21.35;47.01
41142;SHT31;63666;52.284;20.890;2023-04-15T12:36:10;21.38;47.03
41142;SHT31;63666;52.284;20.890;2023-04-15T12:38:43;21.38;47.05
41142;SHT31;63666;52.284;20.890;2023-04-15T12:41:21;21.36;47.11
41142;SHT31;63666;52.284;20.890;2023-04-15T12:43:54;21.36;47.15
41142;SHT31;63666;52.284;20.890;2023-04-15T12:46:32;21.34;47.18
41142;SHT31;63666;52.284;20.890;2023-04-15T12:49:09;21.34;47.27
41142;SHT31;63666;52.284;20.890;2023-04-15T12:51:44;21.34;47.30
41142;SHT31;63666;52.284;20.890;2023-04-15T12:54:23;21.33;47.35
41142;SHT31;63666;52.284;20.890;2023-04-15T12:56:57;21.32;47.42
41142;SHT31;63666;52.284;20.890;2023-04-15T12:59:35;21.33;47.57
41142;SHT31;63666;52.284;20.890;2023-04-15T13:02:08;21.39;47.90
41142;SHT31;63666;52.284;20.890;2023-04-15T13:04:44;21.40;47.84
41142;SHT31;63666;52.284;20.890;2023-04-15T13:07:23;21.35;47.57
41142;SHT31;63666;52.284;20.890;2023-04-15T13:09:59;21.34;47.45
41142;SHT31;63666;52.284;20.890;2023-04-15T13:12:36;21.32;47.50
41142;SHT31;63666;52.284;20.890;2023-04-15T13:15:13;21.28;47.53
41142;SHT31;63666;52.284;20.890;2023-04-15T13:17:49;21.26;47.59
41142;SHT31;63666;52.284;20.890;2023-04-15T13:20:24;21.26;47.57
41142;SHT31;63666;52.284;20.890;2023-04-15T13:22:59;21.25;47.52
41142;SHT31;63666;52.284;20.890;2023-04-15T13:25:35;21.23;47.49
41142;SHT31;63666;52.284;20.890;2023-04-15T13:28:10;21.23;47.39
41142;SHT31;63666;52.284;20.890;2023-04-15T13:30:48;21.22;47.34
41142;SHT31;63666;52.284;20.890;2023-04-15T13:33:23;21.21;47.31
41142;SHT31;63666;52.284;20.890;2023-04-15T13:35:58;21.21;47.32
41142;SHT31;63666;52.284;20.890;2023-04-15T13:38:33;21.19;48.73
41142;SHT31;63666;52.284;20.890;2023-04-15T13:41:09;21.21;49.90
41142;SHT31;63666;52.284;20.890;2023-04-15T13:43:44;21.22;49.62
41142;SHT31;63666;52.284;20.890;2023-04-15T13:46:19;21.21;49.88
41142;SHT31;63666;52.284;20.890;2023-04-15T13:48:54;21.23;50.40
41142;SHT31;63666;52.284;20.890;2023-04-15T13:51:29;21.24;50.37
41142;SHT31;63666;52.284;20.890;2023-04-15T13:54:05;21.23;50.24
41142;SHT31;63666;52.284;20.890;2023-04-15T13:56:39;21.22;50.31
41142;SHT31;63666;52.284;20.890;2023-04-15T13:59:15;21.22;50.42
41142;SHT31;63666;52.284;20.890;2023-04-15T14:01:50;21.21;50.23
41142;SHT31;63666;52.284;20.890;2023-04-15T14:04:25;21.23;50.06
41142;SHT31;63666;52.284;20.890;2023-04-15T14:06:59;21.21;49.90
41142;SHT31;63666;52.284;20.890;2023-04-15T14:09:34;21.20;49.77
41142;SHT31;63666;52.284;20.890;2023-04-15T14:12:11;21.20;49.67
41142;SHT31;63666;52.284;20.890;2023-04-15T14:14:46;21.19;49.57
41142;SHT31;63666;52.284;20.890;2023-04-15T14:17:24;21.17;49.46
41142;SHT31;63666;52.284;20.890;2023-04-15T14:19:57;21.17;49.38
41142;SHT31;63666;52.284;20.890;2023-04-15T14:22:34;21.16;49.35
41142;SHT31;63666;52.284;20.890;2023-04-15T14:25:08;21.15;49.28
41142;SHT31;63666;52.284;20.890;2023-04-15T14:27:59;21.14;49.16
41142;SHT31;63666;52.284;20.890;2023-04-15T14:30:35;21.14;49.05
41142;SHT31;63666;52.284;20.890;2023-04-15T14:33:10;21.11;48.95
41142;SHT31;63666;52.284;20.890;2023-04-15T14:35:47;21.10;48.90
41142;SHT31;63666;52.284;20.890;2023-04-15T14:38:22;21.07;48.78
41142;SHT31;63666;52.284;20.890;2023-04-15T14:40:57;21.09;48.71
41142;SHT31;63666;52.284;20.890;2023-04-15T14:43:32;21.07;48.62
41142;SHT31;63666;52.284;20.890;2023-04-15T14:46:06;21.05;48.61
41142;SHT31;63666;52.284;20.890;2023-04-15T14:48:42;21.05;48.56
41142;SHT31;63666;52.284;20.890;2023-04-15T14:51:16;21.05;48.67
41142;SHT31;63666;52.284;20.890;2023-04-15T14:53:50;21.07;48.74
41142;SHT31;63666;52.284;20.890;2023-04-15T14:56:23;21.08;48.73
41142;SHT31;63666;52.284;20.890;2023-04-15T14:58:58;21.06;48.69
41142;SHT31;63666;52.284;20.890;2023-04-15T15:01:31;21.04;48.64
41142;SHT31;63666;52.284;20.890;2023-04-15T15:04:12;21.06;48.60
41142;SHT31;63666;52.284;20.890;2023-04-15T15:06:47;21.04;48.61
41142;SHT31;63666;52.284;20.890;2023-04-15T15:09:22;21.05;48.54
41142;SHT31;63666;52.284;20.890;2023-04-15T15:11:56;21.05;48.49
41142;SHT31;63666;52.284;20.890;2023-04-15T15:14:34;21.02;48.48
41142;SHT31;63666;52.284;20.890;2023-04-15T15:17:10;21.02;48.46
41142;SHT31;63666;52.284;20.890;2023-04-15T15:19:45;21.03;48.43
41142;SHT31;63666;52.284;20.890;2023-04-15T15:22:20;21.03;48.34
41142;SHT31;63666;52.284;20.890;2023-04-15T15:24:56;21.02;48.36
41142;SHT31;63666;52.284;20.890;2023-04-15T15:27:31;21.02;48.30
41142;SHT31;63666;52.284;20.890;2023-04-15T15:30:08;21.02;48.25
41142;SHT31;63666;52.284;20.890;2023-04-15T15:32:44;21.02;48.22
41142;SHT31;63666;52.284;20.890;2023-04-15T15:35:21;21.01;48.19
41142;SHT31;63666;52.284;20.890;2023-04-15T15:37:59;21.02;48.11
41142;SHT31;63666;52.284;20.890;2023-04-15T15:40:35;21.00;48.10
41142;SHT31;63666;52.284;20.890;2023-04-15T15:43:10;20.99;48.11
41142;SHT31;63666;52.284;20.890;2023-04-15T15:45:45;20.97;48.08
41142;SHT31;63666;52.284;20.890;2023-04-15T15:48:24;20.98;48.05
41142;SHT31;63666;52.284;20.890;2023-04-15T15:50:59;20.97;48.02
41142;SHT31;63666;52.284;20.890;2023-04-15T15:53:40;20.96;48.04
41142;SHT31;63666;52.284;20.890;2023-04-15T15:56:17;20.95;48.00
41142;SHT31;63666;52.284;20.890;2023-04-15T15:58:52;20.95;47.96
41142;SHT31;63666;52.284;20.890;2023-04-15T16:01:27;20.94;47.94
41142;SHT31;63666;52.284;20.890;2023-04-15T16:04:01;20.93;47.89
41142;SHT31;63666;52.284;20.890;2023-04-15T16:06:37;20.93;47.86
41142;SHT31;63666;52.284;20.890;2023-04-15T16:09:13;20.94;47.80
41142;SHT31;63666;52.284;20.890;2023-04-15T16:11:48;20.96;47.73
41142;SHT31;63666;52.284;20.890;2023-04-15T16:14:24;20.97;47.70
41142;SHT31;63666;52.284;20.890;2023-04-15T16:17:00;20.98;47.68
41142;SHT31;63666;52.284;20.890;2023-04-15T16:19:36;20.98;47.66
41142;SHT31;63666;52.284;20.890;2023-04-15T16:22:29;20.99;47.60
41142;SHT31;63666;52.284;20.890;2023-04-15T16:25:04;21.00;47.58
41142;SHT31;63666;52.284;20.890;2023-04-15T16:27:39;20.99;47.53